Time;durP1;ratioP1;P1;durP2;ratioP2;P2;SDS_P1;SDS_P2;PMS_P1;PMS_P2;Temp;Humidity;BMP_temperature;BMP_pressure;BME280_temperature;BME280_humidity;BME280_pressure;Samples;Min_cycle;Max_cycle;Signal;HPM_P1;HPM_P2
2023/05/11 00:00:04;;;;;;;9.38;7.50;;;11.50;99.90;;;;;;5046909;28;20036;-55
2023/05/11 00:02:29;;;;;;;9.38;7.32;;;11.60;99.90;;;;;;5047887;28;20075;-54
2023/05/11 00:04:55;;;;;;;11.52;8.45;;;11.60;99.90;;;;;;5047189;28;20105;-51
2023/05/11 00:07:20;;;;;;;8.18;7.22;;;11.60;99.90;;;;;;5046821;28;20555;-51
2023/05/11 00:09:46;;;;;;;9.38;7.40;;;11.60;99.90;;;;;;5046132;28;20029;-53
2023/05/11 00:12:13;;;;;;;8.25;6.72;;;11.50;99.90;;;;;;5048098;28;20422;-55
2023/05/11 00:14:39;;;;;;;9.18;7.55;;;11.60;99.90;;;;;;5043329;28;20020;-52
2023/05/11 00:17:04;;;;;;;9.95;7.60;;;11.60;99.90;;;;;;5047343;28;20106;-53
2023/05/11 00:19:30;;;;;;;8.57;6.45;;;11.60;99.90;;;;;;5050593;28;20506;-55
2023/05/11 00:21:57;;;;;;;9.63;7.80;;;11.60;99.90;;;;;;5051049;28;20499;-57
2023/05/11 00:24:24;;;;;;;7.38;6.57;;;11.60;99.90;;;;;;5051132;28;20102;-54
2023/05/11 00:26:49;;;;;;;10.27;7.28;;;11.60;99.90;;;;;;5050448;28;20028;-53
2023/05/11 00:29:15;;;;;;;12.00;7.95;;;11.70;99.90;;;;;;5049136;28;20445;-53
2023/05/11 00:31:40;;;;;;;9.00;7.45;;;11.70;99.90;;;;;;5050411;28;20422;-52
2023/05/11 00:34:06;;;;;;;9.95;8.07;;;11.70;99.90;;;;;;5050510;28;20028;-55
2023/05/11 00:36:32;;;;;;;11.20;8.68;;;11.70;99.90;;;;;;5050165;28;20021;-50
2023/05/11 00:38:58;;;;;;;10.65;7.90;;;11.70;99.90;;;;;;5049980;28;20091;-54
2023/05/11 00:41:24;;;;;;;9.82;6.15;;;11.70;99.90;;;;;;5051090;28;20063;-56
2023/05/11 00:43:50;;;;;;;8.93;7.18;;;11.70;99.90;;;;;;5050703;28;20031;-55
2023/05/11 00:46:16;;;;;;;9.57;7.95;;;11.70;99.90;;;;;;5032721;28;20035;-54
2023/05/11 00:48:42;;;;;;;11.18;7.88;;;11.70;99.90;;;;;;5032455;28;20028;-56
2023/05/11 00:51:08;;;;;;;11.10;8.48;;;11.70;99.90;;;;;;5050691;28;20032;-52
2023/05/11 00:53:34;;;;;;;11.40;8.35;;;11.70;99.90;;;;;;5051407;28;20055;-56
2023/05/11 00:56:00;;;;;;;11.10;8.57;;;11.70;99.90;;;;;;5050376;28;20053;-52
2023/05/11 00:58:26;;;;;;;10.73;7.57;;;11.70;99.90;;;;;;5048587;28;20059;-55
2023/05/11 01:00:51;;;;;;;10.68;8.77;;;11.60;99.90;;;;;;5047537;28;20060;-56
2023/05/11 01:03:17;;;;;;;11.52;8.48;;;11.70;99.90;;;;;;5048063;28;20530;-54
2023/05/11 01:05:56;;;;;;;11.30;8.57;;;11.60;99.90;;;;;;5049710;28;20116;-55
2023/05/11 01:08:45;;;;;;;12.43;8.63;;;11.60;99.90;;;;;;5050123;28;20028;-55
2023/05/11 01:11:29;;;;;;;12.50;8.63;;;11.70;99.90;;;;;;5031778;28;20124;-53
2023/05/11 01:14:13;;;;;;;8.73;7.38;;;11.60;99.90;;;;;;5031935;28;20787;-54
2023/05/11 01:16:42;;;;;;;13.27;10.07;;;11.60;99.90;;;;;;5049604;28;20064;-55
2023/05/11 01:19:47;;;;;;;12.18;8.73;;;11.60;99.90;;;;;;5049109;28;20063;-55
2023/05/11 01:22:52;;;;;;;11.77;8.88;;;11.60;99.90;;;;;;5045848;28;20049;-56
2023/05/11 01:25:38;;;;;;;10.15;7.82;;;11.60;99.90;;;;;;5049213;28;20087;-56
2023/05/11 01:28:14;;;;;;;10.70;8.30;;;11.60;99.90;;;;;;5091667;22;20048;-65
2023/05/11 01:30:45;;;;;;;13.75;9.05;;;11.50;99.90;;;;;;5077539;28;20040;-62
2023/05/11 01:33:13;;;;;;;13.68;9.18;;;11.50;99.90;;;;;;5078875;28;20550;-61
2023/05/11 01:35:45;;;;;;;12.65;8.85;;;11.50;99.90;;;;;;5078806;28;20024;-64
2023/05/11 01:38:13;;;;;;;12.95;8.50;;;11.40;99.90;;;;;;5094711;28;20109;-64
2023/05/11 01:40:40;;;;;;;11.10;7.75;;;11.30;99.90;;;;;;5084393;28;20028;-64
2023/05/11 01:43:11;;;;;;;10.30;8.10;;;11.30;99.90;;;;;;5097622;28;20385;-62
2023/05/11 01:45:42;;;;;;;10.23;7.50;;;11.30;99.90;;;;;;5088362;28;20496;-63
2023/05/11 01:48:16;;;;;;;11.73;7.75;;;11.30;99.90;;;;;;5098970;28;20453;-64
2023/05/11 01:50:43;;;;;;;10.82;8.18;;;11.30;99.90;;;;;;5097820;28;20464;-62
2023/05/11 01:53:11;;;;;;;13.13;9.10;;;11.30;99.90;;;;;;5097297;28;20398;-62
2023/05/11 01:55:38;;;;;;;11.65;8.55;;;11.30;99.90;;;;;;5100034;28;20023;-65
2023/05/11 01:58:07;;;;;;;11.23;8.10;;;11.30;99.90;;;;;;5103580;28;20065;-65
2023/05/11 02:00:33;;;;;;;11.32;8.73;;;11.20;99.90;;;;;;5098079;28;20448;-63
2023/05/11 02:03:01;;;;;;;11.32;7.85;;;11.10;99.90;;;;;;5098685;28;20031;-64
2023/05/11 02:05:28;;;;;;;12.23;8.00;;;11.10;99.90;;;;;;5087439;28;20713;-63
2023/05/11 02:07:55;;;;;;;11.50;8.52;;;11.10;99.90;;;;;;5095768;28;20023;-64
2023/05/11 02:10:25;;;;;;;11.45;8.43;;;11.10;99.90;;;;;;5098146;28;20024;-64
2023/05/11 02:12:53;;;;;;;11.65;8.27;;;11.10;99.90;;;;;;5097674;28;20022;-61
2023/05/11 02:15:21;;;;;;;10.60;7.93;;;11.10;99.90;;;;;;5098618;28;20072;-61
2023/05/11 02:17:47;;;;;;;10.77;8.23;;;11.10;99.90;;;;;;5096950;28;20081;-61
2023/05/11 02:20:13;;;;;;;9.18;6.72;;;11.10;99.90;;;;;;5098288;28;20043;-61
2023/05/11 02:22:42;;;;;;;10.38;7.13;;;11.20;99.90;;;;;;5098223;28;20139;-64
2023/05/11 02:25:09;;;;;;;8.50;6.78;;;11.10;99.90;;;;;;5093632;28;20034;-63
2023/05/11 02:27:35;;;;;;;10.20;6.95;;;11.20;99.90;;;;;;5095896;28;20111;-62
2023/05/11 02:30:07;;;;;;;9.50;6.05;;;11.20;99.90;;;;;;5097909;28;20110;-62
2023/05/11 02:32:36;;;;;;;10.88;7.22;;;11.20;99.90;;;;;;5099692;28;20046;-63
2023/05/11 02:35:08;;;;;;;11.30;6.70;;;11.20;99.90;;;;;;5084203;28;20027;-63
2023/05/11 02:37:40;;;;;;;8.38;6.43;;;11.20;99.90;;;;;;5095833;28;20020;-62
2023/05/11 02:40:14;;;;;;;10.88;7.90;;;11.30;99.90;;;;;;5097195;28;20034;-63
2023/05/11 02:42:42;;;;;;;11.00;6.70;;;11.30;99.90;;;;;;5084803;28;20634;-63
2023/05/11 02:45:10;;;;;;;9.60;7.38;;;11.20;99.90;;;;;;5097587;28;20031;-63
2023/05/11 02:47:41;;;;;;;12.68;8.43;;;11.30;99.90;;;;;;5098184;28;20028;-63
2023/05/11 02:50:08;;;;;;;15.02;9.68;;;11.20;99.90;;;;;;5098319;28;20026;-62
2023/05/11 02:52:38;;;;;;;13.15;9.02;;;11.30;99.90;;;;;;5096817;28;20032;-63
2023/05/11 02:55:05;;;;;;;12.73;9.50;;;11.20;99.90;;;;;;5098684;28;20435;-63
2023/05/11 02:57:31;;;;;;;11.32;8.38;;;11.30;99.90;;;;;;5097319;28;20031;-62
2023/05/11 02:59:57;;;;;;;14.50;9.23;;;11.30;99.90;;;;;;5096917;28;20050;-63
2023/05/11 03:02:23;;;;;;;11.75;8.40;;;11.30;99.90;;;;;;5096482;28;20064;-61
2023/05/11 03:04:49;;;;;;;14.90;9.95;;;11.30;99.90;;;;;;5098153;28;20028;-64
2023/05/11 03:07:14;;;;;;;14.32;9.80;;;11.30;99.90;;;;;;5096195;28;20036;-63
2023/05/11 03:09:40;;;;;;;14.07;9.50;;;11.30;99.90;;;;;;5095520;28;20111;-62
2023/05/11 03:12:06;;;;;;;13.88;9.13;;;11.30;99.90;;;;;;5096943;28;20076;-63
2023/05/11 03:14:34;;;;;;;15.55;10.05;;;11.30;99.90;;;;;;5098140;28;20072;-62
2023/05/11 03:17:00;;;;;;;11.63;9.38;;;11.30;99.90;;;;;;5097168;28;20016;-63
2023/05/11 03:19:30;;;;;;;14.88;10.23;;;11.20;99.90;;;;;;5097505;28;20075;-63
2023/05/11 03:21:57;;;;;;;15.50;10.68;;;11.30;99.90;;;;;;5096145;28;20679;-63
2023/05/11 03:24:24;;;;;;;14.88;9.73;;;11.20;99.90;;;;;;5100767;28;20194;-63
2023/05/11 03:26:51;;;;;;;17.95;11.68;;;11.20;99.90;;;;;;5084773;28;20031;-62
2023/05/11 03:29:17;;;;;;;17.80;11.68;;;11.20;99.90;;;;;;5096096;28;20027;-63
2023/05/11 03:31:43;;;;;;;18.92;10.90;;;11.20;99.90;;;;;;5095690;28;20035;-63
2023/05/11 03:34:08;;;;;;;18.52;11.93;;;11.20;99.90;;;;;;5095443;28;20067;-62
2023/05/11 03:36:35;;;;;;;16.95;10.63;;;11.10;99.90;;;;;;5095703;28;20104;-63
2023/05/11 03:39:02;;;;;;;16.67;11.00;;;11.00;99.90;;;;;;5096630;28;20089;-63
2023/05/11 03:41:30;;;;;;;14.43;9.43;;;11.10;99.90;;;;;;5095721;28;20483;-63
2023/05/11 03:43:58;;;;;;;14.77;9.77;;;11.10;99.90;;;;;;5083943;28;20026;-63
2023/05/11 03:46:25;;;;;;;13.95;8.80;;;11.00;99.90;;;;;;5093309;28;20458;-63
2023/05/11 03:48:52;;;;;;;16.17;10.68;;;11.00;99.90;;;;;;5096179;28;20032;-63
2023/05/11 03:51:18;;;;;;;13.70;8.93;;;11.00;99.90;;;;;;5094086;28;20034;-63
2023/05/11 03:53:44;;;;;;;14.52;9.07;;;11.00;99.90;;;;;;5099080;28;20032;-63
2023/05/11 03:56:10;;;;;;;13.90;9.60;;;11.00;99.90;;;;;;5099069;28;20309;-63
2023/05/11 03:58:39;;;;;;;17.67;10.30;;;11.00;99.90;;;;;;5099747;28;20392;-62
2023/05/11 04:01:08;;;;;;;15.20;10.45;;;11.00;99.90;;;;;;5099637;28;20504;-63
2023/05/11 04:03:35;;;;;;;16.80;9.77;;;11.00;99.90;;;;;;5100050;28;20018;-63
2023/05/11 04:06:01;;;;;;;18.40;11.63;;;11.00;99.90;;;;;;5099133;28;20238;-62
2023/05/11 04:08:26;;;;;;;19.70;11.18;;;11.00;99.90;;;;;;5097981;28;20136;-63
2023/05/11 04:10:52;;;;;;;20.75;12.40;;;11.00;99.90;;;;;;5099329;28;20024;-63
2023/05/11 04:13:17;;;;;;;18.83;11.70;;;11.00;99.90;;;;;;5099429;28;20108;-63
2023/05/11 04:15:43;;;;;;;19.83;12.20;;;11.00;99.90;;;;;;5090423;28;20020;-62
2023/05/11 04:18:09;;;;;;;19.48;12.02;;;11.00;99.90;;;;;;5098084;28;20448;-63
2023/05/11 04:20:35;;;;;;;16.80;11.48;;;11.00;99.90;;;;;;5098731;28;20145;-62
2023/05/11 04:23:00;;;;;;;21.25;12.68;;;11.00;99.90;;;;;;5099650;28;20062;-63
2023/05/11 04:25:26;;;;;;;23.38;11.50;;;11.00;99.90;;;;;;5098832;28;20042;-62
2023/05/11 04:27:52;;;;;;;21.52;12.32;;;10.90;99.90;;;;;;5098878;28;20115;-63
2023/05/11 04:30:19;;;;;;;21.38;12.30;;;11.00;99.90;;;;;;5098209;28;20039;-62
2023/05/11 04:32:44;;;;;;;22.70;12.30;;;11.00;99.90;;;;;;5098447;28;20025;-63
2023/05/11 04:35:10;;;;;;;21.50;12.95;;;11.00;99.90;;;;;;5087813;28;20096;-63
2023/05/11 04:37:36;;;;;;;20.95;12.70;;;11.00;99.90;;;;;;5096325;28;20057;-62
2023/05/11 04:40:03;;;;;;;21.40;12.57;;;11.00;99.90;;;;;;5099567;28;20023;-63
2023/05/11 04:42:29;;;;;;;25.48;13.10;;;11.10;99.90;;;;;;5099330;28;20023;-62
2023/05/11 04:44:54;;;;;;;23.13;12.65;;;11.10;99.90;;;;;;5097673;28;20104;-62
2023/05/11 04:47:20;;;;;;;23.08;13.38;;;11.10;99.90;;;;;;5097688;28;20116;-63
2023/05/11 04:49:46;;;;;;;23.92;14.27;;;11.10;99.90;;;;;;5098731;28;20118;-62
2023/05/11 04:52:11;;;;;;;20.63;11.68;;;11.10;99.90;;;;;;5098792;28;20028;-62
2023/05/11 04:54:38;;;;;;;22.23;12.18;;;11.10;99.90;;;;;;5097605;28;20545;-62
2023/05/11 04:57:03;;;;;;;21.42;12.73;;;11.20;99.90;;;;;;5099107;28;20076;-63
2023/05/11 04:59:29;;;;;;;24.27;13.60;;;11.20;99.90;;;;;;5097012;28;20028;-63
2023/05/11 05:01:54;;;;;;;21.67;13.13;;;11.20;99.90;;;;;;5097737;28;20055;-61
2023/05/11 05:04:20;;;;;;;27.48;14.90;;;11.20;99.90;;;;;;5096862;28;20080;-62
2023/05/11 05:06:46;;;;;;;27.27;14.13;;;11.20;99.90;;;;;;5097625;28;20020;-63
2023/05/11 05:09:11;;;;;;;25.67;13.13;;;11.20;99.90;;;;;;5097439;28;20024;-63
2023/05/11 05:11:37;;;;;;;28.80;15.27;;;11.30;99.90;;;;;;5088635;28;20114;-62
2023/05/11 05:14:02;;;;;;;24.45;13.93;;;11.30;99.90;;;;;;5097658;28;20032;-62
2023/05/11 05:16:28;;;;;;;28.75;15.05;;;11.40;99.90;;;;;;5098533;28;20062;-62
2023/05/11 05:18:53;;;;;;;23.23;13.02;;;11.40;99.90;;;;;;5086903;28;20011;-62
2023/05/11 05:21:19;;;;;;;26.88;14.25;;;11.40;99.90;;;;;;5099697;28;20028;-62
2023/05/11 05:23:45;;;;;;;33.13;15.90;;;11.40;99.90;;;;;;5100074;28;20028;-62
2023/05/11 05:26:10;;;;;;;25.60;14.70;;;11.40;99.90;;;;;;5088878;28;20701;-62
2023/05/11 05:28:36;;;;;;;31.35;15.43;;;11.40;99.90;;;;;;5096589;28;20477;-61
2023/05/11 05:31:01;;;;;;;31.30;15.32;;;11.40;99.90;;;;;;5097001;28;20169;-62
2023/05/11 05:33:27;;;;;;;30.17;15.30;;;11.40;99.90;;;;;;5097763;28;20036;-62
2023/05/11 05:35:53;;;;;;;26.50;14.80;;;11.40;99.90;;;;;;5097391;28;20046;-61
2023/05/11 05:38:19;;;;;;;25.35;14.38;;;11.40;99.90;;;;;;5096847;28;20036;-61
2023/05/11 05:40:44;;;;;;;28.25;14.40;;;11.50;99.90;;;;;;5097566;28;20027;-63
2023/05/11 05:43:10;;;;;;;24.60;15.07;;;11.50;99.90;;;;;;5097611;28;20107;-62
2023/05/11 05:45:35;;;;;;;26.42;13.93;;;11.50;99.90;;;;;;5098234;28;20101;-63
2023/05/11 05:48:01;;;;;;;29.63;14.98;;;11.50;99.90;;;;;;5096959;28;20474;-63
2023/05/11 05:50:27;;;;;;;29.75;14.48;;;11.50;99.90;;;;;;5087051;28;20474;-63
2023/05/11 05:52:52;;;;;;;26.75;14.23;;;11.50;99.90;;;;;;5088354;28;20030;-62
2023/05/11 05:55:18;;;;;;;32.60;15.55;;;11.50;99.90;;;;;;5096998;28;20039;-62
2023/05/11 05:57:43;;;;;;;23.30;12.20;;;11.50;99.90;;;;;;5097005;28;20059;-63
2023/05/11 06:00:09;;;;;;;32.08;15.52;;;11.60;99.90;;;;;;5096392;28;20058;-62
2023/05/11 06:02:35;;;;;;;24.30;13.10;;;11.70;99.90;;;;;;5096224;28;20504;-63
2023/05/11 06:05:01;;;;;;;23.00;14.27;;;11.70;99.90;;;;;;5097792;28;20019;-63
2023/05/11 06:07:26;;;;;;;29.08;14.68;;;11.70;99.90;;;;;;5087349;28;20050;-63
2023/05/11 06:09:52;;;;;;;28.10;14.63;;;11.70;99.90;;;;;;5097289;28;20525;-64
2023/05/11 06:12:17;;;;;;;29.70;15.02;;;11.80;99.90;;;;;;5097171;28;20042;-63
2023/05/11 06:14:43;;;;;;;29.60;14.30;;;11.80;99.90;;;;;;5095045;28;20027;-61
2023/05/11 06:17:08;;;;;;;30.02;14.52;;;11.80;99.90;;;;;;5081498;28;20070;-62
2023/05/11 06:19:34;;;;;;;27.08;15.25;;;11.80;99.90;;;;;;5096344;28;21562;-62
2023/05/11 06:21:59;;;;;;;24.95;13.85;;;11.80;99.90;;;;;;5094691;28;20020;-62
2023/05/11 06:24:25;;;;;;;33.50;15.18;;;11.80;99.90;;;;;;5097583;28;20020;-62
2023/05/11 06:26:51;;;;;;;27.77;14.65;;;11.80;99.90;;;;;;5095829;28;20075;-62
2023/05/11 06:29:17;;;;;;;26.65;12.55;;;11.80;99.90;;;;;;5098791;28;20020;-62
2023/05/11 06:31:43;;;;;;;24.40;12.15;;;11.80;99.90;;;;;;5087235;28;20044;-60
2023/05/11 06:34:08;;;;;;;24.83;12.75;;;11.80;99.90;;;;;;5096903;28;20039;-62
2023/05/11 06:36:34;;;;;;;22.40;12.93;;;11.90;99.90;;;;;;5086864;28;20036;-62
2023/05/11 06:38:59;;;;;;;26.45;13.48;;;11.90;99.90;;;;;;5087441;28;20020;-62
2023/05/11 06:41:25;;;;;;;24.63;12.63;;;12.00;99.90;;;;;;5097249;28;20084;-62
2023/05/11 06:43:51;;;;;;;21.58;12.40;;;12.00;99.90;;;;;;5097059;28;20022;-63
2023/05/11 06:46:16;;;;;;;24.85;12.05;;;12.00;99.90;;;;;;5086557;28;20031;-65
2023/05/11 06:48:42;;;;;;;24.52;13.43;;;12.00;99.90;;;;;;5097935;28;20024;-61
2023/05/11 06:51:11;;;;;;;24.63;13.15;;;12.00;99.90;;;;;;5095908;28;20023;-61
2023/05/11 06:53:37;;;;;;;23.38;13.48;;;12.10;99.90;;;;;;5096009;28;20028;-62
2023/05/11 06:56:03;;;;;;;27.27;14.32;;;12.10;99.90;;;;;;5084517;28;20035;-62
2023/05/11 06:58:29;;;;;;;27.98;14.40;;;12.10;99.90;;;;;;5084600;28;20032;-62
2023/05/11 07:00:55;;;;;;;24.63;12.85;;;12.10;99.90;;;;;;5097226;28;20111;-62
2023/05/11 07:03:20;;;;;;;23.58;11.18;;;12.20;99.90;;;;;;5095557;28;20073;-61
2023/05/11 07:05:46;;;;;;;25.40;13.23;;;12.20;99.90;;;;;;5096294;28;20031;-61
2023/05/11 07:08:12;;;;;;;25.77;13.63;;;12.20;99.90;;;;;;5095969;28;20073;-62
2023/05/11 07:10:37;;;;;;;28.13;13.88;;;12.20;99.90;;;;;;5096696;28;20107;-62
2023/05/11 07:13:03;;;;;;;26.30;14.05;;;12.20;99.90;;;;;;5095928;28;20024;-62
2023/05/11 07:15:29;;;;;;;23.83;14.20;;;12.20;99.90;;;;;;5100657;28;20031;-61
2023/05/11 07:17:55;;;;;;;26.25;14.05;;;12.20;99.90;;;;;;5095810;28;20016;-60
2023/05/11 07:20:20;;;;;;;25.98;13.85;;;12.20;99.90;;;;;;5095729;28;20028;-61
2023/05/11 07:22:46;;;;;;;27.80;13.80;;;12.20;99.90;;;;;;5095545;28;20053;-62
2023/05/11 07:25:11;;;;;;;27.58;14.65;;;12.30;99.90;;;;;;5095929;28;20048;-61
2023/05/11 07:27:37;;;;;;;28.90;14.73;;;12.30;99.90;;;;;;5104340;22;20052;-57
2023/05/11 07:30:03;;;;;;;23.23;13.88;;;12.40;99.90;;;;;;5047181;28;20031;-56
2023/05/11 07:32:29;;;;;;;25.10;12.32;;;12.40;99.90;;;;;;5046871;28;20351;-54
2023/05/11 07:34:55;;;;;;;27.08;13.43;;;12.40;99.90;;;;;;5047265;28;20017;-58
2023/05/11 07:37:20;;;;;;;25.08;12.23;;;12.50;99.90;;;;;;5042116;28;20272;-54
2023/05/11 07:39:46;;;;;;;24.65;11.35;;;12.50;99.90;;;;;;5026951;28;20467;-52
2023/05/11 07:42:12;;;;;;;25.85;12.73;;;12.40;99.90;;;;;;5026602;28;20273;-54
2023/05/11 07:44:37;;;;;;;19.65;11.93;;;12.50;99.90;;;;;;5027121;28;20034;-56
2023/05/11 07:47:03;;;;;;;23.75;11.48;;;12.60;99.90;;;;;;5026850;28;20030;-55
2023/05/11 07:49:29;;;;;;;22.15;10.98;;;12.70;99.90;;;;;;5026745;28;20025;-56
2023/05/11 07:51:54;;;;;;;16.70;9.27;;;12.60;99.90;;;;;;5025896;28;20029;-55
2023/05/11 07:54:20;;;;;;;20.40;11.63;;;12.70;99.90;;;;;;5010936;28;20542;-56
2023/05/11 07:56:45;;;;;;;22.90;12.52;;;12.70;99.90;;;;;;5009487;28;20022;-55
2023/05/11 07:59:11;;;;;;;17.65;11.55;;;12.80;99.90;;;;;;5015110;28;20492;-55
2023/05/11 08:01:36;;;;;;;22.42;12.30;;;12.70;99.90;;;;;;5024745;28;20280;-54
2023/05/11 08:04:02;;;;;;;23.63;12.38;;;12.70;99.90;;;;;;5025487;28;20022;-57
2023/05/11 08:06:27;;;;;;;22.00;12.88;;;12.80;99.90;;;;;;5025768;28;20121;-55
2023/05/11 08:08:53;;;;;;;23.90;13.02;;;12.80;99.90;;;;;;5026513;28;20025;-57
2023/05/11 08:11:18;;;;;;;23.45;12.80;;;12.90;99.90;;;;;;5026316;28;20038;-55
2023/05/11 08:13:44;;;;;;;19.45;12.10;;;12.90;99.90;;;;;;5026728;28;20445;-57
2023/05/11 08:16:09;;;;;;;21.00;12.00;;;12.90;99.90;;;;;;5027288;28;20029;-55
2023/05/11 08:18:35;;;;;;;20.38;11.27;;;12.90;99.90;;;;;;5024924;28;20032;-56
2023/05/11 08:21:01;;;;;;;17.75;9.95;;;12.90;99.90;;;;;;5026936;28;20032;-56
2023/05/11 08:23:26;;;;;;;21.10;12.82;;;12.90;99.90;;;;;;5024755;28;20031;-57
2023/05/11 08:25:54;;;;;;;19.73;11.15;;;13.00;99.90;;;;;;5026733;28;20042;-54
2023/05/11 08:28:20;;;;;;;17.92;10.27;;;13.00;99.90;;;;;;5026038;28;20052;-55
2023/05/11 08:30:52;;;;;;;19.90;11.43;;;13.10;99.90;;;;;;5025908;28;20905;-55
2023/05/11 08:33:18;;;;;;;21.77;11.30;;;13.10;99.90;;;;;;5025196;28;20033;-56
2023/05/11 08:35:43;;;;;;;20.02;11.20;;;13.10;99.90;;;;;;5025033;28;20032;-56
2023/05/11 08:38:09;;;;;;;18.58;10.57;;;13.20;99.90;;;;;;5025938;28;20029;-55
2023/05/11 08:40:35;;;;;;;18.73;10.20;;;13.20;99.90;;;;;;5029575;28;20026;-55
2023/05/11 08:43:06;;;;;;;18.55;10.82;;;13.20;99.90;;;;;;5030625;28;20025;-57
2023/05/11 08:45:33;;;;;;;21.15;11.90;;;13.20;99.90;;;;;;5012506;28;20151;-56
2023/05/11 08:47:59;;;;;;;20.05;11.95;;;13.20;99.90;;;;;;5029588;28;20397;-58
2023/05/11 08:50:25;;;;;;;19.40;11.45;;;13.30;99.90;;;;;;5030064;28;20310;-55
2023/05/11 08:52:50;;;;;;;22.42;13.45;;;13.30;99.90;;;;;;5013119;28;20048;-56
2023/05/11 08:55:16;;;;;;;19.15;10.55;;;13.40;99.90;;;;;;5030119;28;20449;-55
2023/05/11 08:57:44;;;;;;;23.45;13.10;;;13.40;99.90;;;;;;5029339;28;20060;-57
2023/05/11 09:00:11;;;;;;;24.63;13.70;;;13.50;99.90;;;;;;5029026;28;20037;-56
2023/05/11 09:02:37;;;;;;;23.02;13.15;;;13.40;99.90;;;;;;5029254;28;20041;-57
2023/05/11 09:05:03;;;;;;;20.17;12.68;;;13.50;99.90;;;;;;5011851;28;20030;-55
2023/05/11 09:07:30;;;;;;;18.45;12.38;;;13.40;99.90;;;;;;5029152;28;20499;-57
2023/05/11 09:09:55;;;;;;;20.00;12.27;;;13.40;99.90;;;;;;5029507;28;20033;-55
2023/05/11 09:12:25;;;;;;;21.30;12.48;;;13.50;99.90;;;;;;5029735;28;20375;-57
2023/05/11 09:14:51;;;;;;;21.25;11.93;;;13.50;99.90;;;;;;5011643;28;20025;-57
2023/05/11 09:17:17;;;;;;;20.33;12.77;;;13.50;99.90;;;;;;5029101;28;20021;-53
2023/05/11 09:20:08;;;;;;;17.33;10.38;;;13.50;99.90;;;;;;5029097;28;20446;-55
2023/05/11 09:22:41;;;;;;;17.02;10.65;;;13.50;99.90;;;;;;5028874;28;20025;-53
2023/05/11 09:25:13;;;;;;;18.77;11.27;;;13.60;99.90;;;;;;5029248;28;20567;-56
2023/05/11 09:27:44;;;;;;;16.50;10.18;;;13.60;99.90;;;;;;5028518;28;20033;-54
2023/05/11 09:30:17;;;;;;;16.33;10.05;;;13.60;99.90;;;;;;5028639;28;20025;-53
2023/05/11 09:32:49;;;;;;;19.58;10.75;;;13.60;99.90;;;;;;5028765;28;20049;-54
2023/05/11 09:35:23;;;;;;;17.85;9.63;;;13.70;99.90;;;;;;5028696;28;20132;-55
2023/05/11 09:38:08;;;;;;;19.35;11.07;;;13.70;99.90;;;;;;5028810;28;20103;-54
2023/05/11 09:40:35;;;;;;;15.20;8.97;;;13.70;99.90;;;;;;5028810;28;20527;-53
2023/05/11 09:43:02;;;;;;;17.30;9.07;;;13.60;99.90;;;;;;5028956;28;20167;-53
2023/05/11 09:45:35;;;;;;;17.38;10.38;;;13.70;99.90;;;;;;5029139;28;20033;-54
2023/05/11 09:48:02;;;;;;;13.85;9.35;;;13.70;99.90;;;;;;5028273;28;20037;-52
2023/05/11 09:50:32;;;;;;;14.23;9.10;;;13.70;99.90;;;;;;5016899;28;20507;-54
2023/05/11 09:52:58;;;;;;;14.23;8.75;;;13.60;99.90;;;;;;5028647;28;20056;-53
2023/05/11 09:55:24;;;;;;;16.10;9.43;;;13.60;99.90;;;;;;5029167;28;20483;-56
2023/05/11 09:57:54;;;;;;;14.70;8.55;;;13.60;99.90;;;;;;5027556;28;20804;-56
2023/05/11 10:00:20;;;;;;;13.68;8.43;;;13.50;99.90;;;;;;5029048;28;20040;-56
2023/05/11 10:02:59;;;;;;;16.13;9.10;;;13.60;99.90;;;;;;5028711;28;20076;-57
2023/05/11 10:05:25;;;;;;;13.93;8.65;;;13.60;99.90;;;;;;5029086;28;20391;-57
2023/05/11 10:07:58;;;;;;;11.98;7.68;;;13.70;99.90;;;;;;5028416;28;20044;-54
2023/05/11 10:10:27;;;;;;;11.45;7.50;;;13.70;99.90;;;;;;5029611;28;20029;-57
2023/05/11 10:12:53;;;;;;;11.32;7.60;;;13.80;99.90;;;;;;5028394;28;20085;-55
2023/05/11 10:15:25;;;;;;;13.75;7.80;;;13.90;99.90;;;;;;5028749;28;20395;-54
2023/05/11 10:17:53;;;;;;;12.00;8.52;;;13.90;99.90;;;;;;5028138;28;20025;-53
2023/05/11 10:20:19;;;;;;;14.00;8.23;;;13.90;99.90;;;;;;5028206;28;20060;-55
2023/05/11 10:22:45;;;;;;;12.82;7.90;;;14.00;99.90;;;;;;5028387;28;20033;-55
2023/05/11 10:25:11;;;;;;;13.27;8.07;;;14.00;99.90;;;;;;5027904;28;20037;-51
2023/05/11 10:27:37;;;;;;;13.88;8.20;;;14.00;99.90;;;;;;5027747;28;20108;-55
2023/05/11 10:30:04;;;;;;;12.60;8.48;;;14.10;99.90;;;;;;5027604;28;20052;-53
2023/05/11 10:32:33;;;;;;;10.82;7.20;;;14.00;99.90;;;;;;5028582;28;20524;-52
2023/05/11 10:34:59;;;;;;;10.27;7.10;;;14.00;99.90;;;;;;5028154;28;20040;-53
2023/05/11 10:37:26;;;;;;;10.85;7.28;;;14.10;99.90;;;;;;5028423;28;20021;-57
2023/05/11 10:39:51;;;;;;;7.32;5.82;;;14.10;99.90;;;;;;5028548;28;20116;-52
2023/05/11 10:42:29;;;;;;;10.80;6.93;;;14.10;99.90;;;;;;5028715;28;20572;-56
2023/05/11 10:45:14;;;;;;;10.52;7.25;;;14.10;99.90;;;;;;5027456;28;20441;-52
2023/05/11 10:48:06;;;;;;;11.48;7.10;;;14.20;99.90;;;;;;5027103;28;20022;-54
2023/05/11 10:51:00;;;;;;;8.93;6.03;;;14.10;99.90;;;;;;5027438;28;20076;-52
2023/05/11 10:53:37;;;;;;;8.60;6.43;;;14.20;99.90;;;;;;5027310;28;20036;-53
2023/05/11 10:56:31;;;;;;;8.48;6.55;;;14.30;99.90;;;;;;5027766;28;20026;-51
2023/05/11 10:59:21;;;;;;;9.25;5.82;;;14.30;99.90;;;;;;5025842;28;20029;-53
2023/05/11 11:01:57;;;;;;;8.70;5.88;;;14.30;99.90;;;;;;5026103;28;20134;-51
2023/05/11 11:04:23;;;;;;;8.38;5.57;;;14.30;99.90;;;;;;5027573;28;20029;-53
2023/05/11 11:07:04;;;;;;;8.85;6.47;;;14.30;99.90;;;;;;5027057;28;20021;-51
2023/05/11 11:09:51;;;;;;;10.07;6.60;;;14.30;99.90;;;;;;5027660;28;20484;-52
2023/05/11 11:12:17;;;;;;;8.00;6.10;;;14.30;99.90;;;;;;5027440;28;20056;-52
2023/05/11 11:14:58;;;;;;;11.93;7.20;;;14.40;99.90;;;;;;5027322;28;20030;-51
2023/05/11 11:17:26;;;;;;;9.13;6.28;;;14.30;99.90;;;;;;5027485;28;20108;-51
2023/05/11 11:19:52;;;;;;;10.30;5.95;;;14.40;99.90;;;;;;5027448;28;20057;-51
2023/05/11 11:22:37;;;;;;;8.90;6.13;;;14.50;99.90;;;;;;5027814;28;20480;-50
2023/05/11 11:25:05;;;;;;;8.50;6.28;;;14.60;99.90;;;;;;5027203;28;20026;-53
2023/05/11 11:27:40;;;;;;;10.27;7.05;;;14.70;99.90;;;;;;5026332;28;20029;-53
2023/05/11 11:30:21;;;;;;;11.07;7.13;;;14.70;99.90;;;;;;5026835;28;20040;-53
2023/05/11 11:32:52;;;;;;;10.88;7.57;;;14.70;99.90;;;;;;5028216;28;20024;-52
2023/05/11 11:35:40;;;;;;;11.95;6.30;;;14.70;99.90;;;;;;5027542;28;20033;-54
2023/05/11 11:38:07;;;;;;;11.07;7.07;;;14.70;99.90;;;;;;5026356;28;20033;-51
2023/05/11 11:40:37;;;;;;;10.45;7.05;;;14.80;99.90;;;;;;5026910;28;20040;-52
2023/05/11 11:43:10;;;;;;;11.43;7.28;;;14.90;99.90;;;;;;5026934;28;20388;-52
2023/05/11 11:45:37;;;;;;;11.93;8.32;;;15.00;99.90;;;;;;5027031;28;20040;-51
2023/05/11 11:48:07;;;;;;;9.52;7.03;;;15.00;99.90;;;;;;5026646;28;20116;-53
2023/05/11 11:50:33;;;;;;;11.65;7.95;;;15.10;99.90;;;;;;5025827;28;20038;-51
2023/05/11 11:52:58;;;;;;;9.80;7.32;;;15.20;99.90;;;;;;5026232;28;20056;-51
2023/05/11 11:55:48;;;;;;;10.80;7.47;;;15.30;99.90;;;;;;5027257;28;20263;-51
2023/05/11 11:58:43;;;;;;;10.98;7.18;;;15.40;99.90;;;;;;5017528;28;20038;-51
2023/05/11 12:01:19;;;;;;;12.23;7.90;;;15.50;99.90;;;;;;5025589;28;20096;-51
2023/05/11 12:03:52;;;;;;;11.27;7.60;;;15.60;99.90;;;;;;5026882;28;20022;-51
2023/05/11 12:06:21;;;;;;;11.35;7.93;;;15.70;99.90;;;;;;5026950;28;20029;-51
2023/05/11 12:08:47;;;;;;;11.18;7.63;;;15.90;99.90;;;;;;5025806;28;20266;-51
2023/05/11 12:11:16;;;;;;;7.65;6.40;;;16.00;99.90;;;;;;5027142;28;20562;-51
2023/05/11 12:13:42;;;;;;;7.93;6.63;;;16.10;99.90;;;;;;5012210;28;20124;-52
2023/05/11 12:16:16;;;;;;;8.35;5.85;;;16.30;99.90;;;;;;5030001;28;20502;-52
2023/05/11 12:18:50;;;;;;;10.63;7.82;;;16.50;99.90;;;;;;5031701;28;20500;-53
2023/05/11 12:21:33;;;;;;;13.60;8.98;;;16.40;99.90;;;;;;5030741;28;20033;-52
2023/05/11 12:24:00;;;;;;;8.18;7.13;;;16.30;99.90;;;;;;5030902;28;20029;-51
2023/05/11 12:26:28;;;;;;;10.05;7.95;;;16.40;99.90;;;;;;5030023;28;20181;-53
2023/05/11 12:29:07;;;;;;;8.77;7.45;;;16.40;99.90;;;;;;5030715;28;20044;-51
2023/05/11 12:31:45;;;;;;;8.10;6.38;;;16.60;99.90;;;;;;5029750;28;20102;-50
2023/05/11 12:34:18;;;;;;;9.20;7.57;;;16.80;99.90;;;;;;5029468;28;20510;-52
2023/05/11 12:36:45;;;;;;;11.10;8.13;;;16.90;99.90;;;;;;5030016;28;20151;-53
2023/05/11 12:39:17;;;;;;;10.63;7.93;;;16.70;99.90;;;;;;5029796;28;20037;-52